Weather at Kristiansand Heliport, Hospital

Public forecast

Using degrees Celsius for public forecast. Weather courtesy of forecast.io.

Closest aviation weather report (METAR) to Kristiansand Heliport, Hospital

Report is more than 6 hours old.

Closest report is Kristiansand Airport, Kjevik, 4.1 nm (7.5 km) NE.

2022/11/14 15:20 (retrieved 2 years ago)

ENCN 141520Z 05008KT 6000 DZ FEW003 BKN006 09/09 Q1019

Closest aviation forecast (TAF) to Kristiansand Heliport, Hospital

Forecast is more than 12 hours old.

Closest forecast is Stavanger Airport, Sola, 85.0 nm (157.5 km) WNW.

2023/02/22 18:36 (retrieved 1 year ago)

TAF ENZV 221700Z 2218/2318 15008KT 9999 -RA FEW007 BKN015 BECMG 2218/2220 BKN012 TEMPO 2218/2224 3000 RADZ BR BKN004 BECMG 2222/2302 35025KT FEW015 SCT030 BECMG 2308/2310 35015KT BECMG 2312/2314 VRB05KT BECMG 2316/2318 17015KT BKN012